createdAt,value
2022-09-28T00:03:27.083Z,11.49
2022-09-28T00:06:51.331Z,11.48
2022-09-28T00:10:18.303Z,11.50
2022-09-28T00:13:40.116Z,11.48
2022-09-28T00:17:18.222Z,11.50
2022-09-28T00:24:15.334Z,11.52
2022-09-28T00:31:39.360Z,11.53
2022-09-28T00:35:07.799Z,11.50
2022-09-28T00:38:20.491Z,11.46
2022-09-28T00:41:42.789Z,11.41
2022-09-28T00:48:00.648Z,11.31
2022-09-28T00:50:50.265Z,11.26
2022-09-28T00:53:53.995Z,11.24
2022-09-28T01:00:19.179Z,11.18
2022-09-28T01:07:25.830Z,11.12
2022-09-28T01:10:58.226Z,11.10
2022-09-28T01:14:46.171Z,11.09
2022-09-28T01:18:41.407Z,11.08
2022-09-28T01:22:05.856Z,11.07
2022-09-28T01:28:56.230Z,11.06
2022-09-28T01:32:17.007Z,11.04
2022-09-28T01:35:37.086Z,11.04
2022-09-28T01:38:54.213Z,11.03
2022-09-28T01:42:33.176Z,11.03
2022-09-28T01:45:51.872Z,11.01
2022-09-28T01:59:56.819Z,10.94
2022-09-28T02:03:07.115Z,10.93
2022-09-28T02:10:29.491Z,10.92
2022-09-28T02:17:06.807Z,10.87
2022-09-28T02:20:24.754Z,10.87
2022-09-28T02:27:12.770Z,10.86
2022-09-28T02:30:20.770Z,10.86
2022-09-28T02:34:04.266Z,10.86
2022-09-28T02:37:43.774Z,10.85
2022-09-28T02:40:49.070Z,10.84
2022-09-28T02:44:41.553Z,10.83
2022-09-28T02:48:03.540Z,10.79
2022-09-28T02:51:40.026Z,10.75
2022-09-28T02:54:58.799Z,10.74
2022-09-28T02:58:18.203Z,10.70
2022-09-28T03:02:23.834Z,10.67
2022-09-28T03:05:22.229Z,10.64
2022-09-28T03:08:09.331Z,10.67
2022-09-28T03:11:06.592Z,10.70
2022-09-28T03:20:54.937Z,10.70
2022-09-28T03:26:58.273Z,10.70
2022-09-28T03:29:42.975Z,10.71
2022-09-28T03:36:25.575Z,10.70
2022-09-28T03:40:01.162Z,10.69
2022-09-28T03:43:05.575Z,10.66
2022-09-28T03:46:15.044Z,10.64
2022-09-28T03:49:31.323Z,10.53
2022-09-28T03:56:08.096Z,10.33
2022-09-28T03:58:54.792Z,10.29
2022-09-28T04:02:28.016Z,10.31
2022-09-28T04:06:12.136Z,10.29
2022-09-28T04:09:26.856Z,10.27
2022-09-28T04:12:12.301Z,10.26
2022-09-28T04:14:55.233Z,10.23
2022-09-28T04:18:33.996Z,10.23
2022-09-28T04:22:04.407Z,10.21
2022-09-28T04:25:25.478Z,10.21
2022-09-28T04:28:45.757Z,10.14
2022-09-28T04:36:25.779Z,10.05
2022-09-28T04:43:15.067Z,9.99
2022-09-28T04:47:05.366Z,9.98
2022-09-28T05:07:26.940Z,9.87
2022-09-28T05:10:15.031Z,9.90
2022-09-28T05:13:20.151Z,9.94
2022-09-28T05:16:38.466Z,9.93
2022-09-28T05:19:37.910Z,9.93
2022-09-28T05:25:55.430Z,9.92
2022-09-28T05:29:32.701Z,9.91
2022-09-28T05:47:51.167Z,9.92
2022-09-28T05:51:02.027Z,9.92
2022-09-28T05:53:45.534Z,9.92
2022-09-28T05:56:20.414Z,9.90
2022-09-28T05:58:57.733Z,9.91
2022-09-28T06:01:36.391Z,9.89
2022-09-28T06:04:13.128Z,9.88
2022-09-28T06:07:03.580Z,9.86
2022-09-28T06:09:42.557Z,9.86
2022-09-28T06:12:24.216Z,9.89
2022-09-28T06:15:05.454Z,9.92
2022-09-28T06:18:02.138Z,9.92
2022-09-28T06:21:06.971Z,9.92
2022-09-28T06:23:49.138Z,9.91
2022-09-28T06:26:26.416Z,9.88
2022-09-28T06:29:14.714Z,9.88
2022-09-28T06:32:04.959Z,9.89
2022-09-28T06:34:38.752Z,9.88
2022-09-28T06:37:10.965Z,9.87
2022-09-28T06:39:44.868Z,9.86
2022-09-28T06:42:48.171Z,9.86
2022-09-28T06:45:35.787Z,9.85
2022-09-28T06:48:36.674Z,9.85
2022-09-28T06:51:18.671Z,9.88
2022-09-28T06:54:15.206Z,9.89
2022-09-28T06:57:15.852Z,9.89
2022-09-28T06:59:48.553Z,9.89
2022-09-28T07:02:23.911Z,9.86
2022-09-28T07:05:40.823Z,9.84
2022-09-28T07:08:32.277Z,9.89
2022-09-28T07:11:30.849Z,10.00
2022-09-28T07:14:31.110Z,10.08
2022-09-28T07:17:13.660Z,10.17
2022-09-28T07:20:00.096Z,10.26
2022-09-28T07:22:43.852Z,10.35
2022-09-28T07:25:27.240Z,10.44
2022-09-28T07:28:15.450Z,10.56
2022-09-28T07:31:12.103Z,10.61
2022-09-28T07:33:57.713Z,10.65
2022-09-28T07:36:42.449Z,10.68
2022-09-28T07:39:13.387Z,10.62
2022-09-28T07:41:46.214Z,10.54
2022-09-28T07:44:19.930Z,10.49
2022-09-28T07:47:00.200Z,10.49
2022-09-28T07:49:58.188Z,10.52
2022-09-28T07:52:54.462Z,10.43
2022-09-28T07:55:37.418Z,10.40
2022-09-28T07:58:25.817Z,10.42
2022-09-28T08:04:36.783Z,10.58
2022-09-28T08:07:23.654Z,10.58
2022-09-28T08:10:00.713Z,10.65
2022-09-28T08:12:31.256Z,10.71
2022-09-28T08:15:28.104Z,10.77
2022-09-28T08:18:27.075Z,10.86
2022-09-28T08:21:25.327Z,10.88
2022-09-28T08:24:01.184Z,10.89
2022-09-28T08:29:48.421Z,11.00
2022-09-28T08:35:44.038Z,11.03
2022-09-28T08:38:20.870Z,11.01
2022-09-28T08:41:44.352Z,11.05
2022-09-28T08:47:54.000Z,11.27
2022-09-28T08:51:03.167Z,11.41
2022-09-28T08:53:58.650Z,11.41
2022-09-28T08:56:57.861Z,11.36
2022-09-28T08:59:37.614Z,11.22
2022-09-28T09:02:21.654Z,11.14
2022-09-28T09:04:56.304Z,11.13
2022-09-28T09:08:10.739Z,11.13
2022-09-28T09:10:58.773Z,11.27
2022-09-28T09:13:54.982Z,11.50
2022-09-28T09:17:08.253Z,11.68
2022-09-28T09:20:16.894Z,11.84
2022-09-28T09:23:25.441Z,11.85
2022-09-28T09:26:09.064Z,11.95
2022-09-28T09:29:09.244Z,11.99
2022-09-28T09:32:05.114Z,12.01
2022-09-28T09:35:10.706Z,12.05
2022-09-28T09:38:28.730Z,12.18
2022-09-28T09:41:52.045Z,12.23
2022-09-28T09:44:49.774Z,12.18
2022-09-28T09:47:50.676Z,12.18
2022-09-28T09:50:41.859Z,12.27
2022-09-28T09:53:26.683Z,12.32
2022-09-28T09:56:31.717Z,12.34
2022-09-28T09:59:21.037Z,12.39
2022-09-28T10:02:27.193Z,12.49
2022-09-28T10:05:37.630Z,12.65
2022-09-28T10:08:44.804Z,12.87
2022-09-28T10:11:28.785Z,13.13
2022-09-28T10:14:02.777Z,13.27
2022-09-28T10:17:01.835Z,13.45
2022-09-28T10:19:52.541Z,13.51
2022-09-28T10:22:54.377Z,13.49
2022-09-28T10:25:25.328Z,13.43
2022-09-28T10:28:00.683Z,13.32
2022-09-28T10:30:43.849Z,13.15
2022-09-28T10:33:39.414Z,12.92
2022-09-28T10:36:11.404Z,12.74
2022-09-28T10:38:50.713Z,12.58
2022-09-28T10:41:33.375Z,12.49
2022-09-28T10:45:02.042Z,12.47
2022-09-28T10:48:01.209Z,12.46
2022-09-28T10:50:35.668Z,12.46
2022-09-28T10:53:28.754Z,12.50
2022-09-28T10:56:27.081Z,12.63
2022-09-28T10:59:06.515Z,12.84
2022-09-28T11:02:15.151Z,12.98
2022-09-28T11:05:29.289Z,13.10
2022-09-28T11:08:24.660Z,13.35
2022-09-28T11:11:13.428Z,13.54
2022-09-28T11:13:58.727Z,13.65
2022-09-28T11:16:38.627Z,13.66
2022-09-28T11:19:32.317Z,13.61
2022-09-28T11:22:41.407Z,13.29
2022-09-28T11:25:23.266Z,13.13
2022-09-28T11:28:06.736Z,13.07
2022-09-28T11:30:53.712Z,12.94
2022-09-28T11:33:49.720Z,12.87
2022-09-28T11:36:44.438Z,12.91
2022-09-28T11:40:05.860Z,13.07
2022-09-28T11:43:11.431Z,13.36
2022-09-28T11:46:00.608Z,13.62
2022-09-28T11:49:08.719Z,13.81
2022-09-28T11:51:49.846Z,14.00
2022-09-28T11:54:48.612Z,14.22
2022-09-28T11:57:25.788Z,14.22
2022-09-28T12:00:02.269Z,14.27
2022-09-28T12:02:55.638Z,14.44
2022-09-28T12:05:35.612Z,14.65
2022-09-28T12:08:19.197Z,14.81
2022-09-28T12:11:48.850Z,14.99
2022-09-28T12:14:36.986Z,14.95
2022-09-28T12:17:22.865Z,14.87
2022-09-28T12:20:17.039Z,14.77
2022-09-28T12:23:02.405Z,14.62
2022-09-28T12:25:43.137Z,14.46
2022-09-28T12:28:45.140Z,14.34
2022-09-28T12:31:30.054Z,14.27
2022-09-28T12:34:05.858Z,14.19
2022-09-28T12:36:57.982Z,14.20
2022-09-28T12:39:58.583Z,14.41
2022-09-28T12:50:41.550Z,14.17
2022-09-28T12:57:18.501Z,14.13
2022-09-28T13:00:32.126Z,14.49
2022-09-28T13:03:57.027Z,14.71
2022-09-28T13:06:51.832Z,14.70
2022-09-28T13:09:27.176Z,14.68
2022-09-28T13:12:26.190Z,14.77
2022-09-28T13:15:14.297Z,14.87
2022-09-28T13:21:27.349Z,15.33
2022-09-28T13:25:08.435Z,15.49
2022-09-28T13:28:34.253Z,15.63
2022-09-28T13:31:54.595Z,15.77
2022-09-28T13:35:37.149Z,15.87
2022-09-28T13:45:18.171Z,16.09
2022-09-28T13:48:23.714Z,16.19
2022-09-28T13:51:20.635Z,16.31
2022-09-28T13:58:00.115Z,16.55
2022-09-28T14:01:32.998Z,16.51
2022-09-28T14:04:45.697Z,16.46
2022-09-28T14:11:29.386Z,16.68
2022-09-28T14:20:47.403Z,16.42
2022-09-28T14:24:21.740Z,16.50
2022-09-28T14:31:30.791Z,16.66
2022-09-28T14:51:56.213Z,15.16
2022-09-28T14:58:12.934Z,14.78
2022-09-28T15:02:34.906Z,14.67
2022-09-28T15:05:25.710Z,14.45
2022-09-28T15:08:48.154Z,14.22
2022-09-28T15:11:29.490Z,14.14
2022-09-28T15:18:10.712Z,13.92
2022-09-28T15:20:50.718Z,13.77
2022-09-28T15:24:05.787Z,13.64
2022-09-28T15:26:53.531Z,13.44
2022-09-28T15:29:38.111Z,13.30
2022-09-28T15:32:39.115Z,13.13
2022-09-28T15:35:33.695Z,12.96
2022-09-28T15:38:30.328Z,12.84
2022-09-28T15:44:40.672Z,12.58
2022-09-28T15:47:29.986Z,12.47
2022-09-28T15:50:05.697Z,12.37
2022-09-28T15:53:06.333Z,12.29
2022-09-28T15:55:59.540Z,12.19
2022-09-28T15:58:34.148Z,12.08
2022-09-28T16:04:26.483Z,11.98
2022-09-28T16:07:41.572Z,11.88
2022-09-28T16:10:19.991Z,11.81
2022-09-28T16:13:33.350Z,11.75
2022-09-28T16:17:26.507Z,11.66
2022-09-28T16:20:59.927Z,11.56
2022-09-28T16:23:39.076Z,11.47
2022-09-28T16:34:11.676Z,11.26
2022-09-28T16:37:11.605Z,11.21
2022-09-28T16:43:36.578Z,11.09
2022-09-28T16:46:42.193Z,11.03
2022-09-28T16:49:59.728Z,10.99
2022-09-28T16:53:52.657Z,10.96
2022-09-28T16:57:36.107Z,10.94
2022-09-28T17:04:16.953Z,10.88
2022-09-28T17:11:20.190Z,10.85
2022-09-28T17:21:36.972Z,10.74
2022-09-28T17:27:57.970Z,10.74
2022-09-28T17:30:51.768Z,10.72
2022-09-28T17:37:33.951Z,10.70
2022-09-28T17:40:38.009Z,10.72
2022-09-28T17:47:25.752Z,10.73
2022-09-28T17:50:32.702Z,10.72
2022-09-28T17:54:23.204Z,10.68
2022-09-28T18:08:01.175Z,10.54
2022-09-28T18:11:14.157Z,10.51
2022-09-28T18:14:40.631Z,10.45
2022-09-28T18:17:23.195Z,10.40
2022-09-28T18:20:30.691Z,10.35
2022-09-28T18:23:43.181Z,10.30
2022-09-28T18:33:18.682Z,10.29
2022-09-28T18:36:37.511Z,10.26
2022-09-28T18:39:48.057Z,10.23
2022-09-28T18:42:59.294Z,10.16
2022-09-28T18:45:58.674Z,10.12
2022-09-28T18:52:22.384Z,10.04
2022-09-28T18:55:28.911Z,10.01
2022-09-28T18:58:36.950Z,9.98
2022-09-28T19:01:31.088Z,9.95
2022-09-28T19:07:58.037Z,9.96
2022-09-28T19:13:59.072Z,9.94
2022-09-28T19:16:35.572Z,9.94
2022-09-28T19:19:51.474Z,9.90
2022-09-28T19:25:53.005Z,9.87
2022-09-28T19:29:06.305Z,9.87
2022-09-28T19:36:17.916Z,9.87
2022-09-28T19:46:31.451Z,9.84
2022-09-28T19:53:23.253Z,9.83
2022-09-28T19:56:40.851Z,9.83
2022-09-28T20:03:24.072Z,9.83
2022-09-28T20:07:22.955Z,9.82
2022-09-28T20:14:50.205Z,9.75
2022-09-28T20:18:27.913Z,9.74
2022-09-28T20:22:12.390Z,9.77
2022-09-28T20:38:56.095Z,9.69
2022-09-28T20:42:18.946Z,9.70
2022-09-28T20:45:33.623Z,9.72
2022-09-28T20:52:40.512Z,9.69
2022-09-28T20:56:07.056Z,9.66
2022-09-28T20:59:24.885Z,9.64
2022-09-28T21:02:37.329Z,9.67
2022-09-28T21:05:58.755Z,9.63
2022-09-28T21:16:09.869Z,9.58
2022-09-28T21:31:16.238Z,9.59
2022-09-28T22:03:59.715Z,9.28
2022-09-28T22:22:31.508Z,9.12
2022-09-28T22:29:47.556Z,9.14
2022-09-28T22:33:38.660Z,9.13
2022-09-28T22:41:16.275Z,9.08
2022-09-28T22:44:53.819Z,9.05
2022-09-28T22:48:51.109Z,9.02
2022-09-28T22:52:05.197Z,9.02
2022-09-28T22:55:51.515Z,9.00
2022-09-28T22:59:31.992Z,9.01
2022-09-28T23:03:17.891Z,9.02
2022-09-28T23:06:45.608Z,9.01
2022-09-28T23:10:22.214Z,9.00
2022-09-28T23:13:50.005Z,8.99
2022-09-28T23:21:23.227Z,9.04
2022-09-28T23:28:07.134Z,9.06
2022-09-28T23:31:58.989Z,9.05
2022-09-28T23:39:32.033Z,9.04
2022-09-28T23:43:14.724Z,9.06
2022-09-28T23:46:53.468Z,9.08
2022-09-28T23:54:04.811Z,9.10
